createdAt,value
2023-02-13T00:01:29.675Z,100.00
2023-02-13T00:03:58.271Z,100.00
2023-02-13T00:06:26.877Z,100.00
2023-02-13T00:08:55.501Z,100.00
2023-02-13T00:11:23.779Z,100.00
2023-02-13T00:13:52.274Z,100.00
2023-02-13T00:16:21.836Z,100.00
2023-02-13T00:18:50.343Z,100.00
2023-02-13T00:21:18.822Z,100.00
2023-02-13T00:23:47.378Z,100.00
2023-02-13T00:26:17.729Z,100.00
2023-02-13T00:28:46.950Z,100.00
2023-02-13T00:31:17.718Z,100.00
2023-02-13T00:33:47.452Z,100.00
2023-02-13T00:36:17.497Z,100.00
2023-02-13T00:38:47.396Z,100.00
2023-02-13T00:41:17.236Z,100.00
2023-02-13T00:43:46.358Z,100.00
2023-02-13T00:46:15.218Z,100.00
2023-02-13T00:48:43.859Z,100.00
2023-02-13T00:51:13.910Z,100.00
2023-02-13T00:53:42.207Z,100.00
2023-02-13T00:56:10.764Z,100.00
2023-02-13T00:58:39.269Z,100.00
2023-02-13T01:01:08.035Z,100.00
2023-02-13T01:03:36.568Z,100.00
2023-02-13T01:06:05.636Z,100.00
2023-02-13T01:08:36.326Z,100.00
2023-02-13T01:11:04.564Z,100.00
2023-02-13T01:13:33.129Z,100.00
2023-02-13T01:16:01.596Z,100.00
2023-02-13T01:18:30.194Z,100.00
2023-02-13T01:21:01.530Z,100.00
2023-02-13T01:23:34.301Z,100.00
2023-02-13T01:26:05.296Z,100.00
2023-02-13T01:28:34.297Z,100.00
2023-02-13T01:31:03.642Z,100.00
2023-02-13T01:33:32.581Z,100.00
2023-02-13T01:36:02.562Z,100.00
2023-02-13T01:38:31.142Z,100.00
2023-02-13T01:40:59.964Z,100.00
2023-02-13T01:43:47.383Z,100.00
2023-02-13T01:46:23.239Z,100.00
2023-02-13T01:48:54.809Z,100.00
2023-02-13T01:51:27.855Z,100.00
2023-02-13T01:54:02.105Z,100.00
2023-02-13T01:56:34.892Z,100.00
2023-02-13T01:59:09.894Z,100.00
2023-02-13T02:01:39.121Z,100.00
2023-02-13T02:04:12.080Z,100.00
2023-02-13T02:06:44.294Z,100.00
2023-02-13T02:09:19.580Z,100.00
2023-02-13T02:11:57.091Z,100.00
2023-02-13T02:14:28.210Z,100.00
2023-02-13T02:16:58.897Z,100.00
2023-02-13T02:19:37.758Z,100.00
2023-02-13T02:22:47.584Z,100.00
2023-02-13T02:26:02.478Z,100.00
2023-02-13T02:29:02.570Z,100.00
2023-02-13T02:32:03.509Z,100.00
2023-02-13T02:34:45.319Z,100.00
2023-02-13T02:37:28.522Z,100.00
2023-02-13T02:40:11.832Z,100.00
2023-02-13T02:42:52.394Z,100.00
2023-02-13T02:45:30.548Z,100.00
2023-02-13T02:48:38.171Z,100.00
2023-02-13T02:51:20.563Z,100.00
2023-02-13T02:54:25.043Z,100.00
2023-02-13T02:56:59.170Z,100.00
2023-02-13T02:59:48.883Z,100.00
2023-02-13T03:02:36.116Z,100.00
2023-02-13T03:05:34.057Z,100.00
2023-02-13T03:08:04.024Z,100.00
2023-02-13T03:10:54.518Z,100.00
2023-02-13T03:13:42.055Z,100.00
2023-02-13T03:16:34.955Z,100.00
2023-02-13T03:19:21.023Z,100.00
2023-02-13T03:22:15.048Z,100.00
2023-02-13T03:24:54.314Z,100.00
2023-02-13T03:27:57.136Z,100.00
2023-02-13T03:30:41.524Z,100.00
2023-02-13T03:33:28.595Z,100.00
2023-02-13T03:36:26.108Z,100.00
2023-02-13T03:39:01.445Z,100.00
2023-02-13T03:41:38.559Z,100.00
2023-02-13T03:44:17.042Z,100.00
2023-02-13T03:46:48.757Z,100.00
2023-02-13T03:49:40.535Z,100.00
2023-02-13T03:52:15.198Z,100.00
2023-02-13T03:55:07.438Z,100.00
2023-02-13T03:57:58.700Z,100.00
2023-02-13T04:00:30.242Z,100.00
2023-02-13T04:03:09.296Z,100.00
2023-02-13T04:05:44.102Z,100.00
2023-02-13T04:08:12.982Z,100.00
2023-02-13T04:10:51.658Z,100.00
2023-02-13T04:13:28.326Z,100.00
2023-02-13T04:16:02.749Z,100.00
2023-02-13T04:18:34.471Z,100.00
2023-02-13T04:21:04.357Z,100.00
2023-02-13T04:23:32.994Z,100.00
2023-02-13T04:26:07.476Z,100.00
2023-02-13T04:28:35.628Z,100.00
2023-02-13T04:31:04.278Z,100.00
2023-02-13T04:33:32.853Z,100.00
2023-02-13T04:36:01.048Z,100.00
2023-02-13T04:38:29.727Z,100.00
2023-02-13T04:40:58.318Z,100.00
2023-02-13T04:43:28.124Z,100.00
2023-02-13T04:45:56.674Z,100.00
2023-02-13T04:48:25.161Z,100.00
2023-02-13T04:50:53.621Z,100.00
2023-02-13T04:53:22.139Z,100.00
2023-02-13T04:55:50.637Z,100.00
2023-02-13T04:58:19.161Z,100.00
2023-02-13T05:00:48.989Z,100.00
2023-02-13T05:03:17.740Z,100.00
2023-02-13T05:05:45.954Z,100.00
2023-02-13T05:08:14.453Z,100.00
2023-02-13T05:10:43.069Z,100.00
2023-02-13T05:13:12.032Z,100.00
2023-02-13T05:15:40.223Z,100.00
2023-02-13T05:18:09.829Z,100.00
2023-02-13T05:20:38.311Z,100.00
2023-02-13T05:23:24.104Z,100.00
2023-02-13T05:25:52.662Z,100.00
2023-02-13T05:28:38.942Z,100.00
2023-02-13T05:31:07.654Z,100.00
2023-02-13T05:33:37.238Z,100.00
2023-02-13T05:36:06.458Z,100.00
2023-02-13T05:38:35.053Z,100.00
2023-02-13T05:41:03.672Z,100.00
2023-02-13T05:43:32.202Z,100.00
2023-02-13T05:46:05.931Z,100.00
2023-02-13T05:48:36.293Z,100.00
2023-02-13T05:51:05.419Z,100.00
2023-02-13T05:53:35.326Z,100.00
2023-02-13T05:56:04.443Z,100.00
2023-02-13T05:58:33.659Z,100.00
2023-02-13T06:01:02.259Z,100.00
2023-02-13T06:03:32.220Z,100.00
2023-02-13T06:06:02.221Z,100.00
2023-02-13T06:08:30.746Z,100.00
2023-02-13T06:10:59.627Z,100.00
2023-02-13T06:13:28.297Z,100.00
2023-02-13T06:15:57.079Z,100.00
2023-02-13T06:18:25.742Z,100.00
2023-02-13T06:20:53.972Z,100.00
2023-02-13T06:23:23.505Z,100.00
2023-02-13T06:25:51.726Z,100.00
2023-02-13T06:28:19.972Z,100.00
2023-02-13T06:30:49.919Z,100.00
2023-02-13T06:33:18.480Z,100.00
2023-02-13T06:35:46.980Z,100.00
2023-02-13T06:38:18.929Z,100.00
2023-02-13T06:40:49.479Z,100.00
2023-02-13T06:43:18.284Z,100.00
2023-02-13T06:45:47.874Z,100.00
2023-02-13T06:48:16.271Z,100.00
2023-02-13T06:50:44.790Z,100.00
2023-02-13T06:53:13.328Z,100.00
2023-02-13T06:55:41.511Z,100.00
2023-02-13T06:58:11.044Z,100.00
2023-02-13T07:00:39.524Z,100.00
2023-02-13T07:03:09.838Z,100.00
2023-02-13T07:05:41.776Z,100.00
2023-02-13T07:08:10.223Z,100.00
2023-02-13T07:10:39.522Z,100.00
2023-02-13T07:13:08.435Z,100.00
2023-02-13T07:15:38.877Z,100.00
2023-02-13T07:18:07.885Z,100.00
2023-02-13T07:20:36.631Z,100.00
2023-02-13T07:23:06.952Z,100.00
2023-02-13T07:25:35.711Z,100.00
2023-02-13T07:28:04.824Z,100.00
2023-02-13T07:30:34.528Z,100.00
2023-02-13T07:33:05.514Z,100.00
2023-02-13T07:35:35.859Z,100.00
2023-02-13T07:38:04.682Z,100.00
2023-02-13T07:40:33.172Z,100.00
2023-02-13T07:43:02.607Z,100.00
2023-02-13T07:45:31.081Z,100.00
2023-02-13T07:48:00.136Z,100.00
2023-02-13T07:50:29.933Z,100.00
2023-02-13T07:52:59.498Z,100.00
2023-02-13T07:55:28.699Z,100.00
2023-02-13T07:57:57.313Z,100.00
2023-02-13T08:00:25.917Z,100.00
2023-02-13T08:02:54.433Z,100.00
2023-02-13T08:05:22.938Z,100.00
2023-02-13T08:07:53.539Z,100.00
2023-02-13T08:10:40.155Z,100.00
2023-02-13T08:13:09.536Z,100.00
2023-02-13T08:15:37.732Z,100.00
2023-02-13T08:18:06.287Z,100.00
2023-02-13T08:20:34.819Z,100.00
2023-02-13T08:23:11.377Z,100.00
2023-02-13T08:25:40.096Z,100.00
2023-02-13T08:28:09.355Z,100.00
2023-02-13T08:30:37.995Z,100.00
2023-02-13T08:33:06.512Z,100.00
2023-02-13T08:35:35.028Z,100.00
2023-02-13T08:38:04.823Z,100.00
2023-02-13T08:40:34.913Z,100.00
2023-02-13T08:43:04.408Z,100.00
2023-02-13T08:45:33.810Z,100.00
2023-02-13T08:48:03.899Z,100.00
2023-02-13T08:50:32.771Z,100.00
2023-02-13T08:53:01.319Z,100.00
2023-02-13T08:55:31.434Z,100.00
2023-02-13T08:58:02.922Z,100.00
2023-02-13T09:00:31.814Z,100.00
2023-02-13T09:03:02.907Z,100.00
2023-02-13T09:05:32.442Z,100.00
2023-02-13T09:08:03.627Z,100.00
2023-02-13T09:10:33.106Z,100.00
2023-02-13T09:13:02.684Z,100.00
2023-02-13T09:15:31.581Z,100.00
2023-02-13T09:18:00.151Z,100.00
2023-02-13T09:20:28.725Z,100.00
2023-02-13T09:22:57.856Z,100.00
2023-02-13T09:25:26.470Z,100.00
2023-02-13T09:27:54.806Z,100.00
2023-02-13T09:30:24.722Z,100.00
2023-02-13T09:32:54.845Z,100.00
2023-02-13T09:35:23.821Z,100.00
2023-02-13T09:37:52.039Z,100.00
2023-02-13T09:40:29.126Z,100.00
2023-02-13T09:43:09.340Z,100.00
2023-02-13T09:45:40.089Z,100.00
2023-02-13T09:48:11.608Z,100.00
2023-02-13T09:50:40.304Z,100.00
2023-02-13T09:53:08.852Z,100.00
2023-02-13T09:55:52.881Z,100.00
2023-02-13T09:58:35.828Z,100.00
2023-02-13T10:01:16.700Z,100.00
2023-02-13T10:03:49.073Z,100.00
2023-02-13T10:06:27.632Z,100.00
2023-02-13T10:09:14.098Z,100.00
2023-02-13T10:12:09.174Z,100.00
2023-02-13T10:14:49.167Z,100.00
2023-02-13T10:17:24.417Z,100.00
2023-02-13T10:20:01.489Z,100.00
2023-02-13T10:22:36.985Z,100.00
2023-02-13T10:25:13.347Z,100.00
2023-02-13T10:27:46.259Z,100.00
2023-02-13T10:30:21.836Z,100.00
2023-02-13T10:33:14.986Z,100.00
2023-02-13T10:35:46.594Z,100.00
2023-02-13T10:38:17.931Z,100.00
2023-02-13T10:41:05.323Z,100.00
2023-02-13T10:43:47.056Z,100.00
2023-02-13T10:46:28.307Z,100.00
2023-02-13T10:49:18.533Z,100.00
2023-02-13T10:51:57.106Z,100.00
2023-02-13T10:54:52.477Z,100.00
2023-02-13T10:57:29.618Z,100.00
2023-02-13T11:00:12.319Z,100.00
2023-02-13T11:02:41.376Z,100.00
2023-02-13T11:05:19.744Z,100.00
2023-02-13T11:07:49.450Z,100.00
2023-02-13T11:10:20.933Z,100.00
2023-02-13T11:12:50.021Z,100.00
2023-02-13T11:15:28.060Z,100.00
2023-02-13T11:17:59.559Z,100.00
2023-02-13T11:20:35.163Z,100.00
2023-02-13T11:23:34.452Z,100.00
2023-02-13T11:26:07.669Z,100.00
2023-02-13T11:28:39.973Z,100.00
2023-02-13T11:31:24.460Z,100.00
2023-02-13T11:33:53.389Z,100.00
2023-02-13T11:36:29.443Z,100.00
2023-02-13T11:39:03.077Z,100.00
2023-02-13T11:41:37.988Z,100.00
2023-02-13T11:44:06.711Z,100.00
2023-02-13T11:46:49.054Z,100.00
2023-02-13T11:49:21.689Z,100.00
2023-02-13T11:51:53.585Z,100.00
2023-02-13T11:54:35.038Z,100.00
2023-02-13T11:57:18.533Z,100.00
2023-02-13T11:59:50.174Z,100.00
2023-02-13T12:02:22.975Z,100.00
2023-02-13T12:04:53.782Z,100.00
2023-02-13T12:07:27.759Z,100.00
2023-02-13T12:10:03.648Z,100.00
2023-02-13T12:12:40.245Z,100.00
2023-02-13T12:15:19.378Z,100.00
2023-02-13T12:17:53.356Z,100.00
2023-02-13T12:20:21.999Z,100.00
2023-02-13T12:23:06.022Z,100.00
2023-02-13T12:26:00.147Z,100.00
2023-02-13T12:28:47.515Z,100.00
2023-02-13T12:31:50.038Z,100.00
2023-02-13T12:34:57.178Z,100.00
2023-02-13T12:37:56.341Z,100.00
2023-02-13T12:41:03.280Z,100.00
2023-02-13T12:44:42.212Z,100.00
2023-02-13T12:47:18.942Z,100.00
2023-02-13T12:50:21.102Z,100.00
2023-02-13T12:53:31.476Z,100.00
2023-02-13T12:56:31.197Z,99.37
2023-02-13T12:59:09.925Z,98.42
2023-02-13T13:02:04.695Z,98.85
2023-02-13T13:04:47.002Z,97.91
2023-02-13T13:07:46.463Z,98.45
2023-02-13T13:10:35.844Z,98.08
2023-02-13T13:13:23.848Z,96.67
2023-02-13T13:16:03.832Z,96.13
2023-02-13T13:18:46.611Z,95.97
2023-02-13T13:21:26.046Z,95.49
2023-02-13T13:24:01.010Z,94.38
2023-02-13T13:26:37.306Z,94.57
2023-02-13T13:29:14.801Z,94.31
2023-02-13T13:31:55.082Z,94.04
2023-02-13T13:34:26.792Z,93.24
2023-02-13T13:37:01.688Z,92.90
2023-02-13T13:39:44.719Z,93.34
2023-02-13T13:42:21.338Z,92.42
2023-02-13T13:45:10.189Z,93.11
2023-02-13T13:47:55.204Z,92.42
2023-02-13T13:50:25.169Z,96.85
2023-02-13T13:53:14.647Z,94.06
2023-02-13T13:56:09.128Z,93.94
2023-02-13T13:58:44.582Z,92.15
2023-02-13T14:01:29.090Z,92.27
2023-02-13T14:03:59.475Z,90.90
2023-02-13T14:06:29.968Z,90.87
2023-02-13T14:09:22.853Z,90.76
2023-02-13T14:11:51.148Z,90.51
2023-02-13T14:14:53.437Z,91.88
2023-02-13T14:17:57.338Z,92.44
2023-02-13T14:20:39.810Z,90.65
2023-02-13T14:23:29.643Z,90.43
2023-02-13T14:26:39.695Z,90.47
2023-02-13T14:29:32.756Z,90.84
2023-02-13T14:32:20.768Z,90.17
2023-02-13T14:34:58.684Z,89.56
2023-02-13T14:37:39.972Z,89.34
2023-02-13T14:40:43.242Z,90.21
2023-02-13T14:43:40.012Z,90.51
2023-02-13T14:46:27.614Z,89.94
2023-02-13T14:49:02.702Z,89.04
2023-02-13T14:51:39.364Z,88.56
2023-02-13T14:54:17.101Z,88.13
2023-02-13T14:56:49.997Z,88.64
2023-02-13T14:59:23.443Z,88.81
2023-02-13T15:01:58.733Z,88.68
2023-02-13T15:04:32.833Z,88.91
2023-02-13T15:07:07.677Z,89.30
2023-02-13T15:09:38.881Z,93.12
2023-02-13T15:12:27.715Z,91.26
2023-02-13T15:14:56.230Z,90.41
2023-02-13T15:17:29.264Z,90.34
2023-02-13T15:20:04.555Z,90.29
2023-02-13T15:22:38.159Z,90.23
2023-02-13T15:25:08.891Z,90.03
2023-02-13T15:27:44.106Z,90.29
2023-02-13T15:30:23.870Z,90.79
2023-02-13T15:32:57.545Z,90.83
2023-02-13T15:35:29.065Z,90.78
2023-02-13T15:37:59.595Z,90.54
2023-02-13T15:40:30.634Z,90.70
2023-02-13T15:43:00.206Z,90.67
2023-02-13T15:45:30.863Z,90.81
2023-02-13T15:47:59.281Z,90.55
2023-02-13T15:50:32.474Z,90.45
2023-02-13T15:53:10.919Z,90.59
2023-02-13T15:55:39.312Z,90.65
2023-02-13T15:58:07.800Z,90.67
2023-02-13T16:00:40.346Z,90.72
2023-02-13T16:03:16.248Z,90.98
2023-02-13T16:05:47.539Z,90.87
2023-02-13T16:08:38.259Z,92.10
2023-02-13T16:11:22.229Z,92.17
2023-02-13T16:14:07.373Z,92.05
2023-02-13T16:16:43.945Z,93.58
2023-02-13T16:19:27.958Z,93.24
2023-02-13T16:21:59.186Z,93.00
2023-02-13T16:24:30.117Z,92.98
2023-02-13T16:26:58.591Z,93.36
2023-02-13T16:29:28.556Z,93.47
2023-02-13T16:32:11.717Z,93.99
2023-02-13T16:34:40.071Z,93.78
2023-02-13T16:37:30.409Z,94.69
2023-02-13T16:40:40.388Z,95.03
2023-02-13T16:43:39.369Z,94.97
2023-02-13T16:46:24.544Z,94.97
2023-02-13T16:49:26.936Z,95.83
2023-02-13T16:52:07.871Z,95.75
2023-02-13T16:54:39.783Z,95.61
2023-02-13T16:57:27.111Z,96.01
2023-02-13T17:00:01.885Z,95.78
2023-02-13T17:02:30.983Z,97.29
2023-02-13T17:05:21.325Z,96.76
2023-02-13T17:07:52.037Z,96.90
2023-02-13T17:10:24.335Z,96.98
2023-02-13T17:12:55.810Z,97.15
2023-02-13T17:15:26.263Z,96.96
2023-02-13T17:17:55.078Z,96.95
2023-02-13T17:20:26.177Z,97.28
2023-02-13T17:22:56.523Z,97.37
2023-02-13T17:25:27.838Z,97.39
2023-02-13T17:27:59.942Z,97.50
2023-02-13T17:30:31.501Z,97.51
2023-02-13T17:33:05.449Z,97.75
2023-02-13T17:35:36.137Z,97.81
2023-02-13T17:38:06.179Z,97.99
2023-02-13T17:40:34.758Z,97.90
2023-02-13T17:43:05.820Z,98.10
2023-02-13T17:45:36.115Z,98.20
2023-02-13T17:48:04.943Z,98.28
2023-02-13T17:50:34.696Z,98.39
2023-02-13T17:53:05.781Z,98.44
2023-02-13T17:55:35.616Z,98.71
2023-02-13T17:58:05.160Z,98.84
2023-02-13T18:00:35.418Z,98.91
2023-02-13T18:03:04.560Z,99.13
2023-02-13T18:05:33.170Z,99.20
2023-02-13T18:08:03.098Z,99.36
2023-02-13T18:10:35.118Z,99.26
2023-02-13T18:13:05.391Z,99.51
2023-02-13T18:15:34.985Z,99.60
2023-02-13T18:18:03.708Z,99.61
2023-02-13T18:20:32.227Z,99.72
2023-02-13T18:23:01.125Z,99.80
2023-02-13T18:25:29.407Z,99.93
2023-02-13T18:27:58.182Z,100.00
2023-02-13T18:30:27.963Z,99.92
2023-02-13T18:32:58.892Z,100.00
2023-02-13T18:35:27.495Z,100.00
2023-02-13T18:37:55.714Z,100.00
2023-02-13T18:40:23.980Z,100.00
2023-02-13T18:42:52.518Z,100.00
2023-02-13T18:45:21.294Z,100.00
2023-02-13T18:47:50.864Z,100.00
2023-02-13T18:50:19.494Z,100.00
2023-02-13T18:52:47.755Z,100.00
2023-02-13T18:55:16.550Z,100.00
2023-02-13T18:57:45.523Z,100.00
2023-02-13T19:00:16.518Z,100.00
2023-02-13T19:02:45.073Z,100.00
2023-02-13T19:05:14.660Z,100.00
2023-02-13T19:07:43.267Z,100.00
2023-02-13T19:10:12.417Z,100.00
2023-02-13T19:12:41.100Z,100.00
2023-02-13T19:15:10.925Z,100.00
2023-02-13T19:17:39.690Z,100.00
2023-02-13T19:20:09.804Z,100.00
2023-02-13T19:22:39.386Z,100.00
2023-02-13T19:25:08.136Z,100.00
2023-02-13T19:27:38.744Z,100.00
2023-02-13T19:30:09.630Z,100.00
2023-02-13T19:32:38.042Z,100.00
2023-02-13T19:35:07.350Z,100.00
2023-02-13T19:37:43.821Z,100.00
2023-02-13T19:40:15.126Z,100.00
2023-02-13T19:42:43.632Z,100.00
2023-02-13T19:45:12.380Z,100.00
2023-02-13T19:47:41.133Z,100.00
2023-02-13T19:50:10.579Z,100.00
2023-02-13T19:52:39.171Z,100.00
2023-02-13T19:55:08.128Z,100.00
2023-02-13T19:57:38.103Z,100.00
2023-02-13T20:00:09.437Z,100.00
2023-02-13T20:02:41.229Z,100.00
2023-02-13T20:05:09.981Z,100.00
2023-02-13T20:07:38.471Z,100.00
2023-02-13T20:10:09.608Z,100.00
2023-02-13T20:12:39.480Z,100.00
2023-02-13T20:15:08.576Z,100.00
2023-02-13T20:17:38.708Z,100.00
2023-02-13T20:20:08.756Z,100.00
2023-02-13T20:22:37.234Z,100.00
2023-02-13T20:25:06.112Z,100.00
2023-02-13T20:30:13.754Z,100.00
2023-02-13T20:32:42.749Z,100.00
2023-02-13T20:35:11.199Z,100.00
2023-02-13T20:37:39.765Z,100.00
2023-02-13T20:40:09.940Z,100.00
2023-02-13T20:42:38.586Z,100.00
2023-02-13T20:45:08.095Z,100.00
2023-02-13T20:47:37.715Z,100.00
2023-02-13T20:50:06.754Z,100.00
2023-02-13T20:52:35.871Z,100.00
2023-02-13T20:55:04.501Z,100.00
2023-02-13T20:57:34.610Z,100.00
2023-02-13T21:00:04.604Z,100.00
2023-02-13T21:02:33.513Z,100.00
2023-02-13T21:05:03.351Z,100.00
2023-02-13T21:07:31.947Z,100.00
2023-02-13T21:10:00.547Z,100.00
2023-02-13T21:12:29.062Z,100.00
2023-02-13T21:14:57.290Z,100.00
2023-02-13T21:17:25.766Z,100.00
2023-02-13T21:19:54.518Z,100.00
2023-02-13T21:22:24.135Z,100.00
2023-02-13T21:24:52.753Z,100.00
2023-02-13T21:27:22.291Z,100.00
2023-02-13T21:29:50.520Z,100.00
2023-02-13T21:32:18.813Z,100.00
2023-02-13T21:34:47.380Z,100.00
2023-02-13T21:37:15.948Z,100.00
2023-02-13T21:39:45.498Z,100.00
2023-02-13T21:42:14.015Z,100.00
2023-02-13T21:44:42.565Z,100.00
2023-02-13T21:47:11.083Z,100.00
2023-02-13T21:49:39.642Z,100.00
2023-02-13T21:52:08.229Z,100.00
2023-02-13T21:54:36.734Z,100.00
2023-02-13T21:57:06.329Z,100.00
2023-02-13T21:59:35.103Z,100.00
2023-02-13T22:02:03.688Z,100.00
2023-02-13T22:04:32.269Z,100.00
2023-02-13T22:07:00.516Z,100.00
2023-02-13T22:09:29.023Z,100.00
2023-02-13T22:11:57.505Z,100.00
2023-02-13T22:14:27.070Z,100.00
2023-02-13T22:16:55.592Z,100.00
2023-02-13T22:19:24.194Z,100.00
2023-02-13T22:21:52.477Z,100.00
2023-02-13T22:24:20.671Z,100.00
2023-02-13T22:26:49.180Z,100.00
2023-02-13T22:29:21.547Z,100.00
2023-02-13T22:31:51.670Z,100.00
2023-02-13T22:34:20.350Z,100.00
2023-02-13T22:36:48.538Z,100.00
2023-02-13T22:39:16.736Z,100.00
2023-02-13T22:41:45.607Z,100.00
2023-02-13T22:44:14.260Z,100.00
2023-02-13T22:46:42.865Z,100.00
2023-02-13T22:49:12.441Z,100.00
2023-02-13T22:51:40.934Z,100.00
2023-02-13T22:54:11.308Z,100.00
2023-02-13T22:56:39.856Z,100.00
2023-02-13T22:59:08.390Z,100.00
2023-02-13T23:01:37.696Z,100.00
2023-02-13T23:04:06.480Z,100.00
2023-02-13T23:06:36.127Z,100.00
2023-02-13T23:09:04.928Z,100.00
2023-02-13T23:11:51.068Z,100.00
2023-02-13T23:14:22.926Z,100.00
2023-02-13T23:17:08.840Z,100.00
2023-02-13T23:19:37.244Z,100.00
2023-02-13T23:22:06.794Z,100.00
2023-02-13T23:24:35.048Z,100.00
2023-02-13T23:27:04.730Z,100.00
2023-02-13T23:29:32.964Z,100.00
2023-02-13T23:32:01.349Z,100.00
2023-02-13T23:34:29.908Z,100.00
2023-02-13T23:36:58.398Z,100.00
2023-02-13T23:39:28.044Z,100.00
2023-02-13T23:41:56.543Z,100.00
2023-02-13T23:44:25.067Z,100.00
2023-02-13T23:46:53.585Z,100.00
2023-02-13T23:49:22.150Z,100.00
2023-02-13T23:51:50.709Z,100.00
2023-02-13T23:54:21.543Z,100.00
2023-02-13T23:56:53.732Z,100.00
2023-02-13T23:59:23.911Z,100.00
